sensor_id;sensor_type;location;lat;lon;timestamp;P1;durP1;ratioP1;P2;durP2;ratioP2
1020;SDS011;499;42.648;23.270;2023-07-28T00:02:12;1.57;;;1.10;;
1020;SDS011;499;42.648;23.270;2023-07-28T00:04:40;1.67;;;1.20;;
1020;SDS011;499;42.648;23.270;2023-07-28T00:07:07;1.50;;;1.00;;
1020;SDS011;499;42.648;23.270;2023-07-28T00:09:34;1.70;;;1.27;;
1020;SDS011;499;42.648;23.270;2023-07-28T00:12:01;1.60;;;1.50;;
1020;SDS011;499;42.648;23.270;2023-07-28T00:14:28;2.40;;;1.27;;
1020;SDS011;499;42.648;23.270;2023-07-28T00:16:56;1.43;;;1.00;;
1020;SDS011;499;42.648;23.270;2023-07-28T00:19:23;1.50;;;1.13;;
1020;SDS011;499;42.648;23.270;2023-07-28T00:21:52;1.80;;;1.20;;
1020;SDS011;499;42.648;23.270;2023-07-28T00:24:21;2.00;;;1.37;;
1020;SDS011;499;42.648;23.270;2023-07-28T00:26:48;1.50;;;1.10;;
1020;SDS011;499;42.648;23.270;2023-07-28T00:29:15;2.17;;;1.70;;
1020;SDS011;499;42.648;23.270;2023-07-28T00:31:42;2.03;;;1.43;;
1020;SDS011;499;42.648;23.270;2023-07-28T00:34:09;1.77;;;1.40;;
1020;SDS011;499;42.648;23.270;2023-07-28T00:36:36;1.77;;;1.33;;
1020;SDS011;499;42.648;23.270;2023-07-28T00:39:04;1.60;;;1.30;;
1020;SDS011;499;42.648;23.270;2023-07-28T00:41:31;1.60;;;1.40;;
1020;SDS011;499;42.648;23.270;2023-07-28T00:43:58;1.63;;;1.17;;
1020;SDS011;499;42.648;23.270;2023-07-28T00:46:25;1.80;;;1.40;;
1020;SDS011;499;42.648;23.270;2023-07-28T00:48:52;1.63;;;1.20;;
1020;SDS011;499;42.648;23.270;2023-07-28T00:51:20;1.60;;;1.20;;
1020;SDS011;499;42.648;23.270;2023-07-28T00:53:47;1.70;;;1.53;;
1020;SDS011;499;42.648;23.270;2023-07-28T00:56:16;1.70;;;1.30;;
1020;SDS011;499;42.648;23.270;2023-07-28T00:58:43;2.00;;;1.33;;
1020;SDS011;499;42.648;23.270;2023-07-28T01:01:10;1.47;;;1.10;;
1020;SDS011;499;42.648;23.270;2023-07-28T01:03:37;1.50;;;1.00;;
1020;SDS011;499;42.648;23.270;2023-07-28T01:06:10;1.63;;;1.20;;
1020;SDS011;499;42.648;23.270;2023-07-28T01:08:42;1.87;;;1.30;;
1020;SDS011;499;42.648;23.270;2023-07-28T01:11:17;1.97;;;1.23;;
1020;SDS011;499;42.648;23.270;2023-07-28T01:13:44;1.47;;;0.97;;
1020;SDS011;499;42.648;23.270;2023-07-28T01:16:12;1.90;;;1.70;;
1020;SDS011;499;42.648;23.270;2023-07-28T01:18:39;1.77;;;1.07;;
1020;SDS011;499;42.648;23.270;2023-07-28T01:21:06;1.40;;;1.00;;
1020;SDS011;499;42.648;23.270;2023-07-28T01:23:41;1.90;;;1.43;;
1020;SDS011;499;42.648;23.270;2023-07-28T01:28:53;1.60;;;1.10;;
1020;SDS011;499;42.648;23.270;2023-07-28T01:31:20;1.60;;;1.23;;
1020;SDS011;499;42.648;23.270;2023-07-28T01:33:47;1.90;;;1.27;;
1020;SDS011;499;42.648;23.270;2023-07-28T01:36:14;1.70;;;1.33;;
1020;SDS011;499;42.648;23.270;2023-07-28T01:38:41;1.50;;;1.10;;
1020;SDS011;499;42.648;23.270;2023-07-28T01:41:08;1.60;;;1.20;;
1020;SDS011;499;42.648;23.270;2023-07-28T01:43:36;1.80;;;1.20;;
1020;SDS011;499;42.648;23.270;2023-07-28T01:46:03;1.80;;;1.20;;
1020;SDS011;499;42.648;23.270;2023-07-28T01:48:30;1.77;;;1.30;;
1020;SDS011;499;42.648;23.270;2023-07-28T01:50:57;1.50;;;1.20;;
1020;SDS011;499;42.648;23.270;2023-07-28T01:53:24;1.30;;;1.00;;
1020;SDS011;499;42.648;23.270;2023-07-28T01:55:51;1.53;;;1.03;;
1020;SDS011;499;42.648;23.270;2023-07-28T01:58:18;1.70;;;1.10;;
1020;SDS011;499;42.648;23.270;2023-07-28T02:00:46;1.60;;;1.23;;
1020;SDS011;499;42.648;23.270;2023-07-28T02:03:13;1.40;;;1.00;;
1020;SDS011;499;42.648;23.270;2023-07-28T02:05:40;1.47;;;1.10;;
1020;SDS011;499;42.648;23.270;2023-07-28T02:08:07;1.37;;;1.00;;
1020;SDS011;499;42.648;23.270;2023-07-28T02:10:34;1.60;;;1.00;;
1020;SDS011;499;42.648;23.270;2023-07-28T02:13:01;1.30;;;1.00;;
1020;SDS011;499;42.648;23.270;2023-07-28T02:15:28;1.47;;;1.20;;
1020;SDS011;499;42.648;23.270;2023-07-28T02:17:57;1.60;;;1.03;;
1020;SDS011;499;42.648;23.270;2023-07-28T02:20:24;1.80;;;1.10;;
1020;SDS011;499;42.648;23.270;2023-07-28T02:22:51;2.63;;;1.70;;
1020;SDS011;499;42.648;23.270;2023-07-28T02:25:18;1.70;;;1.10;;
1020;SDS011;499;42.648;23.270;2023-07-28T02:27:45;1.50;;;1.30;;
1020;SDS011;499;42.648;23.270;2023-07-28T02:30:12;1.80;;;1.43;;
1020;SDS011;499;42.648;23.270;2023-07-28T02:32:39;2.87;;;1.60;;
1020;SDS011;499;42.648;23.270;2023-07-28T02:35:08;1.83;;;1.47;;
1020;SDS011;499;42.648;23.270;2023-07-28T02:37:35;1.67;;;1.33;;
1020;SDS011;499;42.648;23.270;2023-07-28T02:40:03;2.00;;;1.50;;
1020;SDS011;499;42.648;23.270;2023-07-28T02:42:30;1.87;;;1.60;;
1020;SDS011;499;42.648;23.270;2023-07-28T02:44:59;1.97;;;1.33;;
1020;SDS011;499;42.648;23.270;2023-07-28T02:47:26;1.90;;;1.50;;
1020;SDS011;499;42.648;23.270;2023-07-28T02:49:53;1.90;;;1.67;;
1020;SDS011;499;42.648;23.270;2023-07-28T02:52:21;2.10;;;1.90;;
1020;SDS011;499;42.648;23.270;2023-07-28T02:54:48;1.77;;;1.50;;
1020;SDS011;499;42.648;23.270;2023-07-28T02:57:15;2.50;;;1.37;;
1020;SDS011;499;42.648;23.270;2023-07-28T02:59:42;2.37;;;1.60;;
1020;SDS011;499;42.648;23.270;2023-07-28T03:02:09;2.10;;;1.43;;
1020;SDS011;499;42.648;23.270;2023-07-28T03:04:36;2.40;;;1.73;;
1020;SDS011;499;42.648;23.270;2023-07-28T03:07:04;1.87;;;1.67;;
1020;SDS011;499;42.648;23.270;2023-07-28T03:09:33;2.23;;;1.93;;
1020;SDS011;499;42.648;23.270;2023-07-28T03:12:00;1.70;;;1.50;;
1020;SDS011;499;42.648;23.270;2023-07-28T03:14:27;1.50;;;1.33;;
1020;SDS011;499;42.648;23.270;2023-07-28T03:16:54;1.70;;;1.50;;
1020;SDS011;499;42.648;23.270;2023-07-28T03:19:21;2.10;;;1.80;;
1020;SDS011;499;42.648;23.270;2023-07-28T03:21:48;1.90;;;1.53;;
1020;SDS011;499;42.648;23.270;2023-07-28T03:24:15;2.00;;;1.73;;
1020;SDS011;499;42.648;23.270;2023-07-28T03:26:44;1.60;;;1.33;;
1020;SDS011;499;42.648;23.270;2023-07-28T03:29:11;2.00;;;1.80;;
1020;SDS011;499;42.648;23.270;2023-07-28T03:31:38;1.70;;;1.27;;
1020;SDS011;499;42.648;23.270;2023-07-28T03:34:04;2.00;;;1.30;;
1020;SDS011;499;42.648;23.270;2023-07-28T03:36:31;1.90;;;1.70;;
1020;SDS011;499;42.648;23.270;2023-07-28T03:38:58;1.83;;;1.23;;
1020;SDS011;499;42.648;23.270;2023-07-28T03:41:25;1.93;;;1.63;;
1020;SDS011;499;42.648;23.270;2023-07-28T03:43:54;1.90;;;1.50;;
1020;SDS011;499;42.648;23.270;2023-07-28T03:46:21;2.10;;;1.67;;
1020;SDS011;499;42.648;23.270;2023-07-28T03:48:48;3.37;;;2.10;;
1020;SDS011;499;42.648;23.270;2023-07-28T03:51:15;2.60;;;2.30;;
1020;SDS011;499;42.648;23.270;2023-07-28T03:53:42;2.43;;;1.70;;
1020;SDS011;499;42.648;23.270;2023-07-28T03:56:09;2.70;;;2.00;;
1020;SDS011;499;42.648;23.270;2023-07-28T03:58:37;2.63;;;2.10;;
1020;SDS011;499;42.648;23.270;2023-07-28T04:01:05;2.67;;;2.17;;
1020;SDS011;499;42.648;23.270;2023-07-28T04:03:34;2.90;;;2.60;;
1020;SDS011;499;42.648;23.270;2023-07-28T04:06:04;2.90;;;2.43;;
1020;SDS011;499;42.648;23.270;2023-07-28T04:08:32;2.60;;;2.40;;
1020;SDS011;499;42.648;23.270;2023-07-28T04:10:59;2.67;;;2.13;;
1020;SDS011;499;42.648;23.270;2023-07-28T04:13:26;2.97;;;2.57;;
1020;SDS011;499;42.648;23.270;2023-07-28T04:15:53;2.93;;;2.67;;
1020;SDS011;499;42.648;23.270;2023-07-28T04:18:22;2.70;;;2.50;;
1020;SDS011;499;42.648;23.270;2023-07-28T04:20:49;2.53;;;2.33;;
1020;SDS011;499;42.648;23.270;2023-07-28T04:23:16;3.30;;;2.47;;
1020;SDS011;499;42.648;23.270;2023-07-28T04:25:43;2.87;;;2.57;;
1020;SDS011;499;42.648;23.270;2023-07-28T04:28:10;3.10;;;2.53;;
1020;SDS011;499;42.648;23.270;2023-07-28T04:30:37;3.20;;;2.73;;
1020;SDS011;499;42.648;23.270;2023-07-28T04:33:04;2.33;;;2.00;;
1020;SDS011;499;42.648;23.270;2023-07-28T04:35:32;3.27;;;2.33;;
1020;SDS011;499;42.648;23.270;2023-07-28T04:37:59;3.20;;;2.50;;
1020;SDS011;499;42.648;23.270;2023-07-28T04:40:26;2.40;;;1.90;;
1020;SDS011;499;42.648;23.270;2023-07-28T04:42:53;2.33;;;1.87;;
1020;SDS011;499;42.648;23.270;2023-07-28T04:45:20;2.40;;;1.83;;
1020;SDS011;499;42.648;23.270;2023-07-28T04:47:47;2.43;;;2.20;;
1020;SDS011;499;42.648;23.270;2023-07-28T04:50:14;2.40;;;2.10;;
1020;SDS011;499;42.648;23.270;2023-07-28T04:52:42;2.77;;;2.37;;
1020;SDS011;499;42.648;23.270;2023-07-28T04:55:09;3.33;;;2.23;;
1020;SDS011;499;42.648;23.270;2023-07-28T04:57:36;2.53;;;2.33;;
1020;SDS011;499;42.648;23.270;2023-07-28T05:00:04;2.63;;;2.07;;
1020;SDS011;499;42.648;23.270;2023-07-28T05:02:32;2.53;;;2.33;;
1020;SDS011;499;42.648;23.270;2023-07-28T05:04:59;3.23;;;2.57;;
1020;SDS011;499;42.648;23.270;2023-07-28T05:07:26;2.47;;;2.20;;
1020;SDS011;499;42.648;23.270;2023-07-28T05:09:55;2.53;;;2.10;;
1020;SDS011;499;42.648;23.270;2023-07-28T05:12:22;2.83;;;2.27;;
1020;SDS011;499;42.648;23.270;2023-07-28T05:14:49;2.30;;;1.93;;
1020;SDS011;499;42.648;23.270;2023-07-28T05:17:16;2.70;;;2.50;;
1020;SDS011;499;42.648;23.270;2023-07-28T05:19:43;2.30;;;2.10;;
1020;SDS011;499;42.648;23.270;2023-07-28T05:22:10;2.73;;;2.20;;
1020;SDS011;499;42.648;23.270;2023-07-28T05:24:37;3.07;;;2.50;;
1020;SDS011;499;42.648;23.270;2023-07-28T05:27:05;2.40;;;2.00;;
1020;SDS011;499;42.648;23.270;2023-07-28T05:29:32;2.50;;;2.10;;
1020;SDS011;499;42.648;23.270;2023-07-28T05:31:59;2.53;;;2.33;;
1020;SDS011;499;42.648;23.270;2023-07-28T05:34:26;2.50;;;2.30;;
1020;SDS011;499;42.648;23.270;2023-07-28T05:36:54;2.30;;;1.90;;
1020;SDS011;499;42.648;23.270;2023-07-28T05:39:21;2.67;;;2.17;;
1020;SDS011;499;42.648;23.270;2023-07-28T05:41:48;2.87;;;2.47;;
1020;SDS011;499;42.648;23.270;2023-07-28T05:44:16;2.60;;;2.40;;
1020;SDS011;499;42.648;23.270;2023-07-28T05:46:43;2.30;;;2.10;;
1020;SDS011;499;42.648;23.270;2023-07-28T05:49:11;2.70;;;1.70;;
1020;SDS011;499;42.648;23.270;2023-07-28T05:51:38;2.00;;;1.80;;
1020;SDS011;499;42.648;23.270;2023-07-28T05:54:04;1.90;;;1.67;;
1020;SDS011;499;42.648;23.270;2023-07-28T05:56:32;2.90;;;2.57;;
1020;SDS011;499;42.648;23.270;2023-07-28T05:58:59;3.40;;;2.20;;
1020;SDS011;499;42.648;23.270;2023-07-28T06:01:27;2.20;;;1.80;;
1020;SDS011;499;42.648;23.270;2023-07-28T06:03:54;2.90;;;2.03;;
1020;SDS011;499;42.648;23.270;2023-07-28T06:06:24;2.30;;;2.10;;
1020;SDS011;499;42.648;23.270;2023-07-28T06:08:51;1.80;;;1.70;;
1020;SDS011;499;42.648;23.270;2023-07-28T06:11:18;2.10;;;1.90;;
1020;SDS011;499;42.648;23.270;2023-07-28T06:13:46;2.90;;;2.37;;
1020;SDS011;499;42.648;23.270;2023-07-28T06:16:13;3.07;;;2.43;;
1020;SDS011;499;42.648;23.270;2023-07-28T06:18:42;2.70;;;2.10;;
1020;SDS011;499;42.648;23.270;2023-07-28T06:21:09;2.43;;;2.23;;
1020;SDS011;499;42.648;23.270;2023-07-28T06:23:36;2.57;;;2.10;;
1020;SDS011;499;42.648;23.270;2023-07-28T06:26:03;2.30;;;1.97;;
1020;SDS011;499;42.648;23.270;2023-07-28T06:28:30;1.90;;;1.57;;
1020;SDS011;499;42.648;23.270;2023-07-28T06:30:57;2.97;;;2.30;;
1020;SDS011;499;42.648;23.270;2023-07-28T06:33:24;2.00;;;1.80;;
1020;SDS011;499;42.648;23.270;2023-07-28T06:35:53;2.43;;;2.13;;
1020;SDS011;499;42.648;23.270;2023-07-28T06:38:22;2.73;;;1.80;;
1020;SDS011;499;42.648;23.270;2023-07-28T06:40:49;2.30;;;1.80;;
1020;SDS011;499;42.648;23.270;2023-07-28T06:43:16;2.13;;;1.70;;
1020;SDS011;499;42.648;23.270;2023-07-28T06:45:44;2.50;;;2.00;;
1020;SDS011;499;42.648;23.270;2023-07-28T06:48:11;2.30;;;1.47;;
1020;SDS011;499;42.648;23.270;2023-07-28T06:50:38;2.50;;;2.07;;
1020;SDS011;499;42.648;23.270;2023-07-28T06:53:06;2.97;;;2.50;;
1020;SDS011;499;42.648;23.270;2023-07-28T06:55:33;2.63;;;2.30;;
1020;SDS011;499;42.648;23.270;2023-07-28T06:58:00;2.00;;;1.73;;
1020;SDS011;499;42.648;23.270;2023-07-28T07:00:27;2.67;;;1.90;;
1020;SDS011;499;42.648;23.270;2023-07-28T07:02:54;2.27;;;2.07;;
1020;SDS011;499;42.648;23.270;2023-07-28T07:05:21;2.63;;;2.13;;
1020;SDS011;499;42.648;23.270;2023-07-28T07:07:48;2.00;;;1.63;;
1020;SDS011;499;42.648;23.270;2023-07-28T07:10:17;2.53;;;1.90;;
1020;SDS011;499;42.648;23.270;2023-07-28T07:12:45;2.10;;;1.57;;
1020;SDS011;499;42.648;23.270;2023-07-28T07:15:14;2.00;;;1.70;;
1020;SDS011;499;42.648;23.270;2023-07-28T07:17:41;2.77;;;2.27;;
1020;SDS011;499;42.648;23.270;2023-07-28T07:20:08;1.90;;;1.77;;
1020;SDS011;499;42.648;23.270;2023-07-28T07:22:36;1.80;;;1.50;;
1020;SDS011;499;42.648;23.270;2023-07-28T07:25:04;2.33;;;1.30;;
1020;SDS011;499;42.648;23.270;2023-07-28T07:27:33;2.27;;;1.70;;
1020;SDS011;499;42.648;23.270;2023-07-28T07:30:00;1.73;;;1.40;;
1020;SDS011;499;42.648;23.270;2023-07-28T07:32:29;2.20;;;1.80;;
1020;SDS011;499;42.648;23.270;2023-07-28T07:34:56;2.20;;;1.57;;
1020;SDS011;499;42.648;23.270;2023-07-28T07:37:23;2.23;;;1.93;;
1020;SDS011;499;42.648;23.270;2023-07-28T07:39:50;1.77;;;1.27;;
1020;SDS011;499;42.648;23.270;2023-07-28T07:42:17;1.90;;;1.60;;
1020;SDS011;499;42.648;23.270;2023-07-28T07:44:45;1.80;;;1.20;;
1020;SDS011;499;42.648;23.270;2023-07-28T07:47:12;1.87;;;1.47;;
1020;SDS011;499;42.648;23.270;2023-07-28T07:49:40;1.70;;;1.30;;
1020;SDS011;499;42.648;23.270;2023-07-28T07:52:07;3.07;;;2.70;;
1020;SDS011;499;42.648;23.270;2023-07-28T07:54:35;1.97;;;1.57;;
1020;SDS011;499;42.648;23.270;2023-07-28T07:57:02;2.20;;;1.83;;
1020;SDS011;499;42.648;23.270;2023-07-28T07:59:29;1.90;;;1.40;;
1020;SDS011;499;42.648;23.270;2023-07-28T08:01:59;1.93;;;1.60;;
1020;SDS011;499;42.648;23.270;2023-07-28T08:04:28;2.33;;;1.17;;
1020;SDS011;499;42.648;23.270;2023-07-28T08:06:56;2.13;;;1.63;;
1020;SDS011;499;42.648;23.270;2023-07-28T08:09:23;2.20;;;1.50;;
1020;SDS011;499;42.648;23.270;2023-07-28T08:11:50;2.30;;;1.50;;
1020;SDS011;499;42.648;23.270;2023-07-28T08:14:18;1.97;;;1.63;;
1020;SDS011;499;42.648;23.270;2023-07-28T08:16:45;1.93;;;1.20;;
1020;SDS011;499;42.648;23.270;2023-07-28T08:19:13;2.70;;;1.87;;
1020;SDS011;499;42.648;23.270;2023-07-28T08:21:40;2.17;;;1.40;;
1020;SDS011;499;42.648;23.270;2023-07-28T08:24:07;2.00;;;1.30;;
1020;SDS011;499;42.648;23.270;2023-07-28T08:26:34;2.93;;;1.43;;
1020;SDS011;499;42.648;23.270;2023-07-28T08:29:01;2.63;;;1.53;;
1020;SDS011;499;42.648;23.270;2023-07-28T08:31:28;1.80;;;1.57;;
1020;SDS011;499;42.648;23.270;2023-07-28T08:33:56;1.70;;;1.13;;
1020;SDS011;499;42.648;23.270;2023-07-28T08:36:24;2.40;;;1.90;;
1020;SDS011;499;42.648;23.270;2023-07-28T08:38:51;1.87;;;1.20;;
1020;SDS011;499;42.648;23.270;2023-07-28T08:41:19;1.83;;;1.43;;
1020;SDS011;499;42.648;23.270;2023-07-28T08:43:46;2.90;;;1.57;;
1020;SDS011;499;42.648;23.270;2023-07-28T08:46:16;2.43;;;1.80;;
1020;SDS011;499;42.648;23.270;2023-07-28T08:48:43;2.07;;;1.50;;
1020;SDS011;499;42.648;23.270;2023-07-28T08:51:10;2.30;;;1.67;;
1020;SDS011;499;42.648;23.270;2023-07-28T08:53:39;2.07;;;1.33;;
1020;SDS011;499;42.648;23.270;2023-07-28T08:56:06;1.70;;;1.10;;
1020;SDS011;499;42.648;23.270;2023-07-28T08:58:33;2.90;;;1.87;;
1020;SDS011;499;42.648;23.270;2023-07-28T09:01:00;1.80;;;1.30;;
1020;SDS011;499;42.648;23.270;2023-07-28T09:03:30;3.23;;;2.03;;
1020;SDS011;499;42.648;23.270;2023-07-28T09:05:59;2.63;;;2.20;;
1020;SDS011;499;42.648;23.270;2023-07-28T09:08:27;2.13;;;1.37;;
1020;SDS011;499;42.648;23.270;2023-07-28T09:10:57;2.43;;;1.53;;
1020;SDS011;499;42.648;23.270;2023-07-28T09:13:35;3.27;;;1.77;;
1020;SDS011;499;42.648;23.270;2023-07-28T09:16:03;2.07;;;1.27;;
1020;SDS011;499;42.648;23.270;2023-07-28T09:18:30;2.50;;;1.80;;
1020;SDS011;499;42.648;23.270;2023-07-28T09:20:57;2.03;;;1.60;;
1020;SDS011;499;42.648;23.270;2023-07-28T09:23:27;2.53;;;1.77;;
1020;SDS011;499;42.648;23.270;2023-07-28T09:25:59;2.23;;;1.40;;
1020;SDS011;499;42.648;23.270;2023-07-28T09:28:36;1.93;;;1.20;;
1020;SDS011;499;42.648;23.270;2023-07-28T09:31:04;1.70;;;1.07;;
1020;SDS011;499;42.648;23.270;2023-07-28T09:33:32;2.17;;;1.70;;
1020;SDS011;499;42.648;23.270;2023-07-28T09:36:06;4.60;;;1.40;;
1020;SDS011;499;42.648;23.270;2023-07-28T09:38:35;2.10;;;1.70;;
1020;SDS011;499;42.648;23.270;2023-07-28T09:41:04;1.97;;;1.70;;
1020;SDS011;499;42.648;23.270;2023-07-28T09:43:33;2.67;;;1.67;;
1020;SDS011;499;42.648;23.270;2023-07-28T09:46:00;4.33;;;1.60;;
1020;SDS011;499;42.648;23.270;2023-07-28T09:48:30;1.70;;;1.17;;
1020;SDS011;499;42.648;23.270;2023-07-28T09:50:58;2.40;;;1.60;;
1020;SDS011;499;42.648;23.270;2023-07-28T09:53:29;2.87;;;1.40;;
1020;SDS011;499;42.648;23.270;2023-07-28T09:56:01;1.50;;;1.03;;
1020;SDS011;499;42.648;23.270;2023-07-28T09:58:29;2.67;;;1.50;;
1020;SDS011;499;42.648;23.270;2023-07-28T10:01:00;2.93;;;1.30;;
1020;SDS011;499;42.648;23.270;2023-07-28T10:03:27;2.00;;;1.10;;
1020;SDS011;499;42.648;23.270;2023-07-28T10:05:55;2.00;;;1.40;;
1020;SDS011;499;42.648;23.270;2023-07-28T10:08:23;2.13;;;1.30;;
1020;SDS011;499;42.648;23.270;2023-07-28T10:10:50;2.03;;;1.40;;
1020;SDS011;499;42.648;23.270;2023-07-28T10:13:19;3.10;;;1.77;;
1020;SDS011;499;42.648;23.270;2023-07-28T10:15:49;1.67;;;1.00;;
1020;SDS011;499;42.648;23.270;2023-07-28T10:18:17;2.70;;;1.17;;
1020;SDS011;499;42.648;23.270;2023-07-28T10:20:46;2.07;;;1.07;;
1020;SDS011;499;42.648;23.270;2023-07-28T10:23:16;1.80;;;1.10;;
1020;SDS011;499;42.648;23.270;2023-07-28T10:25:44;1.90;;;0.90;;
1020;SDS011;499;42.648;23.270;2023-07-28T10:28:28;1.60;;;0.80;;
1020;SDS011;499;42.648;23.270;2023-07-28T10:30:58;1.43;;;1.00;;
1020;SDS011;499;42.648;23.270;2023-07-28T10:33:31;1.40;;;0.70;;
1020;SDS011;499;42.648;23.270;2023-07-28T10:35:59;1.83;;;1.13;;
1020;SDS011;499;42.648;23.270;2023-07-28T10:38:37;1.30;;;0.57;;
1020;SDS011;499;42.648;23.270;2023-07-28T10:41:05;1.70;;;1.20;;
1020;SDS011;499;42.648;23.270;2023-07-28T10:43:36;1.50;;;0.70;;
1020;SDS011;499;42.648;23.270;2023-07-28T10:46:06;1.30;;;0.63;;
1020;SDS011;499;42.648;23.270;2023-07-28T10:48:35;1.30;;;0.80;;
1020;SDS011;499;42.648;23.270;2023-07-28T10:51:03;1.30;;;0.87;;
1020;SDS011;499;42.648;23.270;2023-07-28T10:53:31;1.70;;;1.10;;
1020;SDS011;499;42.648;23.270;2023-07-28T10:55:59;1.40;;;0.60;;
1020;SDS011;499;42.648;23.270;2023-07-28T10:58:28;1.30;;;0.77;;
1020;SDS011;499;42.648;23.270;2023-07-28T11:00:55;2.23;;;1.17;;
1020;SDS011;499;42.648;23.270;2023-07-28T11:03:23;1.50;;;0.80;;
1020;SDS011;499;42.648;23.270;2023-07-28T11:05:50;1.27;;;0.70;;
1020;SDS011;499;42.648;23.270;2023-07-28T11:08:17;1.30;;;0.70;;
1020;SDS011;499;42.648;23.270;2023-07-28T11:10:44;2.17;;;1.10;;
1020;SDS011;499;42.648;23.270;2023-07-28T11:13:12;1.43;;;0.80;;
1020;SDS011;499;42.648;23.270;2023-07-28T11:15:40;1.30;;;0.77;;
1020;SDS011;499;42.648;23.270;2023-07-28T11:18:07;1.33;;;0.63;;
1020;SDS011;499;42.648;23.270;2023-07-28T11:20:36;1.90;;;0.90;;
1020;SDS011;499;42.648;23.270;2023-07-28T11:23:04;1.70;;;0.97;;
1020;SDS011;499;42.648;23.270;2023-07-28T11:25:32;1.40;;;0.63;;
1020;SDS011;499;42.648;23.270;2023-07-28T11:28:00;1.30;;;0.70;;
1020;SDS011;499;42.648;23.270;2023-07-28T11:30:30;1.43;;;0.70;;
1020;SDS011;499;42.648;23.270;2023-07-28T11:32:58;1.27;;;0.70;;
1020;SDS011;499;42.648;23.270;2023-07-28T11:35:25;1.77;;;0.80;;
1020;SDS011;499;42.648;23.270;2023-07-28T11:37:54;1.60;;;0.90;;
1020;SDS011;499;42.648;23.270;2023-07-28T11:40:22;2.33;;;1.40;;
1020;SDS011;499;42.648;23.270;2023-07-28T11:42:51;1.40;;;0.77;;
1020;SDS011;499;42.648;23.270;2023-07-28T11:45:20;2.00;;;1.00;;
1020;SDS011;499;42.648;23.270;2023-07-28T11:47:55;2.47;;;1.10;;
1020;SDS011;499;42.648;23.270;2023-07-28T11:50:23;2.60;;;1.33;;
1020;SDS011;499;42.648;23.270;2023-07-28T11:52:51;1.63;;;0.87;;
1020;SDS011;499;42.648;23.270;2023-07-28T11:55:20;1.77;;;1.07;;
1020;SDS011;499;42.648;23.270;2023-07-28T11:57:47;2.90;;;0.90;;
1020;SDS011;499;42.648;23.270;2023-07-28T12:00:15;1.77;;;1.13;;
1020;SDS011;499;42.648;23.270;2023-07-28T12:02:43;1.53;;;0.73;;
1020;SDS011;499;42.648;23.270;2023-07-28T12:05:12;2.00;;;1.07;;
1020;SDS011;499;42.648;23.270;2023-07-28T12:07:40;1.77;;;0.90;;
1020;SDS011;499;42.648;23.270;2023-07-28T12:10:07;3.20;;;1.37;;
1020;SDS011;499;42.648;23.270;2023-07-28T12:12:43;1.60;;;1.17;;
1020;SDS011;499;42.648;23.270;2023-07-28T12:15:21;1.70;;;1.07;;
1020;SDS011;499;42.648;23.270;2023-07-28T12:18:02;2.10;;;1.00;;
1020;SDS011;499;42.648;23.270;2023-07-28T12:20:34;1.40;;;1.20;;
1020;SDS011;499;42.648;23.270;2023-07-28T12:23:02;1.80;;;1.10;;
1020;SDS011;499;42.648;23.270;2023-07-28T12:25:30;1.30;;;0.67;;
1020;SDS011;499;42.648;23.270;2023-07-28T12:27:59;1.50;;;0.80;;
1020;SDS011;499;42.648;23.270;2023-07-28T12:30:26;1.70;;;1.57;;
1020;SDS011;499;42.648;23.270;2023-07-28T12:32:53;3.63;;;1.30;;
1020;SDS011;499;42.648;23.270;2023-07-28T12:35:20;1.97;;;1.30;;
1020;SDS011;499;42.648;23.270;2023-07-28T12:37:49;2.87;;;1.37;;
1020;SDS011;499;42.648;23.270;2023-07-28T12:40:17;1.30;;;0.90;;
1020;SDS011;499;42.648;23.270;2023-07-28T12:42:45;1.97;;;0.97;;
1020;SDS011;499;42.648;23.270;2023-07-28T12:45:14;1.93;;;1.03;;
1020;SDS011;499;42.648;23.270;2023-07-28T12:47:41;2.13;;;1.53;;
1020;SDS011;499;42.648;23.270;2023-07-28T12:50:09;1.47;;;0.80;;
1020;SDS011;499;42.648;23.270;2023-07-28T12:52:36;2.33;;;1.10;;
1020;SDS011;499;42.648;23.270;2023-07-28T12:55:03;1.90;;;1.63;;
1020;SDS011;499;42.648;23.270;2023-07-28T12:57:31;2.03;;;1.20;;
1020;SDS011;499;42.648;23.270;2023-07-28T12:59:58;1.40;;;0.73;;
1020;SDS011;499;42.648;23.270;2023-07-28T13:02:26;1.70;;;0.90;;
1020;SDS011;499;42.648;23.270;2023-07-28T13:04:53;1.50;;;1.10;;
1020;SDS011;499;42.648;23.270;2023-07-28T13:07:20;1.33;;;0.83;;
1020;SDS011;499;42.648;23.270;2023-07-28T13:09:48;1.47;;;0.93;;
1020;SDS011;499;42.648;23.270;2023-07-28T13:12:15;2.13;;;0.87;;
1020;SDS011;499;42.648;23.270;2023-07-28T13:14:42;2.07;;;1.10;;
1020;SDS011;499;42.648;23.270;2023-07-28T13:17:09;1.10;;;0.40;;
1020;SDS011;499;42.648;23.270;2023-07-28T13:19:39;1.93;;;1.07;;
1020;SDS011;499;42.648;23.270;2023-07-28T13:22:06;1.60;;;0.90;;
1020;SDS011;499;42.648;23.270;2023-07-28T13:24:33;2.27;;;1.50;;
1020;SDS011;499;42.648;23.270;2023-07-28T13:27:00;1.63;;;0.80;;
1020;SDS011;499;42.648;23.270;2023-07-28T13:29:27;1.47;;;0.93;;
1020;SDS011;499;42.648;23.270;2023-07-28T13:31:56;1.30;;;0.80;;
1020;SDS011;499;42.648;23.270;2023-07-28T13:34:25;1.50;;;0.80;;
1020;SDS011;499;42.648;23.270;2023-07-28T13:36:54;2.00;;;1.07;;
1020;SDS011;499;42.648;23.270;2023-07-28T13:39:21;1.70;;;0.80;;
1020;SDS011;499;42.648;23.270;2023-07-28T13:41:48;1.23;;;0.73;;
1020;SDS011;499;42.648;23.270;2023-07-28T13:44:16;2.10;;;1.40;;
1020;SDS011;499;42.648;23.270;2023-07-28T13:46:43;2.27;;;1.20;;
1020;SDS011;499;42.648;23.270;2023-07-28T13:49:10;2.70;;;1.03;;
1020;SDS011;499;42.648;23.270;2023-07-28T13:51:37;1.57;;;0.87;;
1020;SDS011;499;42.648;23.270;2023-07-28T13:54:05;2.57;;;1.07;;
1020;SDS011;499;42.648;23.270;2023-07-28T13:56:32;1.30;;;0.60;;
1020;SDS011;499;42.648;23.270;2023-07-28T13:58:59;1.43;;;1.00;;
1020;SDS011;499;42.648;23.270;2023-07-28T14:01:26;1.90;;;1.07;;
1020;SDS011;499;42.648;23.270;2023-07-28T14:03:53;1.53;;;0.70;;
1020;SDS011;499;42.648;23.270;2023-07-28T14:06:20;1.40;;;0.70;;
1020;SDS011;499;42.648;23.270;2023-07-28T14:08:47;1.80;;;1.17;;
1020;SDS011;499;42.648;23.270;2023-07-28T14:11:15;1.60;;;0.87;;
1020;SDS011;499;42.648;23.270;2023-07-28T14:13:42;1.93;;;0.80;;
1020;SDS011;499;42.648;23.270;2023-07-28T14:16:09;1.63;;;1.10;;
1020;SDS011;499;42.648;23.270;2023-07-28T14:18:37;1.87;;;1.30;;
1020;SDS011;499;42.648;23.270;2023-07-28T14:21:05;2.17;;;1.30;;
1020;SDS011;499;42.648;23.270;2023-07-28T14:23:33;1.40;;;0.70;;
1020;SDS011;499;42.648;23.270;2023-07-28T14:26:00;1.20;;;0.67;;
1020;SDS011;499;42.648;23.270;2023-07-28T14:28:28;1.73;;;1.03;;
1020;SDS011;499;42.648;23.270;2023-07-28T14:30:55;1.67;;;0.80;;
1020;SDS011;499;42.648;23.270;2023-07-28T14:33:22;2.30;;;0.70;;
1020;SDS011;499;42.648;23.270;2023-07-28T14:35:49;1.70;;;1.10;;
1020;SDS011;499;42.648;23.270;2023-07-28T14:38:17;1.50;;;0.83;;
1020;SDS011;499;42.648;23.270;2023-07-28T14:40:44;1.30;;;0.70;;
1020;SDS011;499;42.648;23.270;2023-07-28T14:43:14;2.20;;;1.20;;
1020;SDS011;499;42.648;23.270;2023-07-28T14:45:42;1.27;;;0.70;;
1020;SDS011;499;42.648;23.270;2023-07-28T14:48:10;1.80;;;0.93;;
1020;SDS011;499;42.648;23.270;2023-07-28T14:50:37;1.90;;;1.10;;
1020;SDS011;499;42.648;23.270;2023-07-28T14:53:10;1.67;;;0.63;;
1020;SDS011;499;42.648;23.270;2023-07-28T14:55:54;2.13;;;0.90;;
1020;SDS011;499;42.648;23.270;2023-07-28T14:58:21;1.67;;;0.90;;
1020;SDS011;499;42.648;23.270;2023-07-28T15:00:50;1.73;;;0.97;;
1020;SDS011;499;42.648;23.270;2023-07-28T15:03:17;1.97;;;1.10;;
1020;SDS011;499;42.648;23.270;2023-07-28T15:05:44;1.87;;;1.20;;
1020;SDS011;499;42.648;23.270;2023-07-28T15:08:11;1.60;;;1.00;;
1020;SDS011;499;42.648;23.270;2023-07-28T15:10:38;1.33;;;0.87;;
1020;SDS011;499;42.648;23.270;2023-07-28T15:13:05;1.60;;;0.83;;
1020;SDS011;499;42.648;23.270;2023-07-28T15:15:31;1.63;;;0.80;;
1020;SDS011;499;42.648;23.270;2023-07-28T15:18:00;1.40;;;0.60;;
1020;SDS011;499;42.648;23.270;2023-07-28T15:20:27;1.30;;;0.73;;
1020;SDS011;499;42.648;23.270;2023-07-28T15:22:54;1.20;;;0.60;;